sensor_id;sensor_type;location;lat;lon;timestamp;pressure;altitude;pressure_sealevel;temperature;humidity
57562;BME280;43397;51.530;5.974;2023-06-14T00:01:19;75163.66;;;-145.90;35.54
57562;BME280;43397;51.530;5.974;2023-06-14T00:03:46;75159.63;;;-145.90;35.52
57562;BME280;43397;51.530;5.974;2023-06-14T00:06:12;75173.81;;;-145.90;35.40
57562;BME280;43397;51.530;5.974;2023-06-14T00:08:38;75157.59;;;-145.90;35.32
57562;BME280;43397;51.530;5.974;2023-06-14T00:11:03;75173.81;;;-145.90;35.46
57562;BME280;43397;51.530;5.974;2023-06-14T00:13:29;75194.06;;;-145.90;35.54
57562;BME280;43397;51.530;5.974;2023-06-14T00:15:55;75210.28;;;-145.90;35.71
57562;BME280;43397;51.530;5.974;2023-06-14T00:18:21;75198.13;;;-145.90;35.70
57562;BME280;43397;51.530;5.974;2023-06-14T00:20:48;75194.06;;;-145.90;35.52
57562;BME280;43397;51.530;5.974;2023-06-14T00:23:13;75200.16;;;-145.90;35.33
57562;BME280;43397;51.530;5.974;2023-06-14T00:25:39;75202.16;;;-145.90;35.45
57562;BME280;43397;51.530;5.974;2023-06-14T00:28:04;75230.53;;;-145.90;35.70
57562;BME280;43397;51.530;5.974;2023-06-14T00:30:30;75248.78;;;-145.90;35.79
57562;BME280;43397;51.530;5.974;2023-06-14T00:32:56;75246.75;;;-145.90;35.65
57562;BME280;43397;51.530;5.974;2023-06-14T00:35:22;75260.94;;;-145.90;35.84
57562;BME280;43397;51.530;5.974;2023-06-14T00:37:49;75271.06;;;-145.90;35.84
57562;BME280;43397;51.530;5.974;2023-06-14T00:40:15;75265.00;;;-145.90;35.74
57562;BME280;43397;51.530;5.974;2023-06-14T00:42:40;75258.91;;;-145.90;35.85
57562;BME280;43397;51.530;5.974;2023-06-14T00:45:07;75301.47;;;-145.90;36.00
57562;BME280;43397;51.530;5.974;2023-06-14T00:47:33;75299.44;;;-145.90;36.21
57562;BME280;43397;51.530;5.974;2023-06-14T00:50:00;75329.84;;;-145.90;36.48
57562;BME280;43397;51.530;5.974;2023-06-14T00:52:26;75305.53;;;-145.90;36.18
57562;BME280;43397;51.530;5.974;2023-06-14T00:54:53;75321.72;;;-145.90;36.51
57562;BME280;43397;51.530;5.974;2023-06-14T00:57:19;75307.53;;;-145.90;36.44
57562;BME280;43397;51.530;5.974;2023-06-14T00:59:47;75335.91;;;-145.90;36.63
57562;BME280;43397;51.530;5.974;2023-06-14T01:02:13;75344.03;;;-145.90;36.61
57562;BME280;43397;51.530;5.974;2023-06-14T01:04:39;75342.00;;;-145.90;36.56
57562;BME280;43397;51.530;5.974;2023-06-14T01:07:09;75339.97;;;-145.90;36.57
57562;BME280;43397;51.530;5.974;2023-06-14T01:09:45;75342.00;;;-145.90;36.56
57562;BME280;43397;51.530;5.974;2023-06-14T01:12:20;75354.16;;;-145.90;36.71
57562;BME280;43397;51.530;5.974;2023-06-14T01:14:48;75372.41;;;-145.90;36.85
57562;BME280;43397;51.530;5.974;2023-06-14T01:17:14;75346.06;;;-145.90;36.69
57562;BME280;43397;51.530;5.974;2023-06-14T01:19:40;75348.06;;;-145.90;36.78
57562;BME280;43397;51.530;5.974;2023-06-14T01:22:06;75356.19;;;-145.90;36.98
57562;BME280;43397;51.530;5.974;2023-06-14T01:24:34;75388.59;;;-145.90;37.14
57562;BME280;43397;51.530;5.974;2023-06-14T01:27:00;75396.72;;;-145.90;37.21
57562;BME280;43397;51.530;5.974;2023-06-14T01:29:28;75392.66;;;-145.90;37.18
57562;BME280;43397;51.530;5.974;2023-06-14T01:31:54;75384.56;;;-145.90;37.05
57562;BME280;43397;51.530;5.974;2023-06-14T01:34:20;75394.69;;;-145.90;37.24
57562;BME280;43397;51.530;5.974;2023-06-14T01:36:47;75382.53;;;-145.90;37.27
57562;BME280;43397;51.530;5.974;2023-06-14T01:39:14;75386.59;;;-145.90;37.10
57562;BME280;43397;51.530;5.974;2023-06-14T01:41:42;75396.72;;;-145.90;37.33
57562;BME280;43397;51.530;5.974;2023-06-14T01:44:10;75400.78;;;-145.90;37.12
57562;BME280;43397;51.530;5.974;2023-06-14T01:46:36;75392.66;;;-145.90;37.13
57562;BME280;43397;51.530;5.974;2023-06-14T01:49:02;75378.47;;;-145.90;37.03
57562;BME280;43397;51.530;5.974;2023-06-14T01:51:27;75382.53;;;-145.90;37.19
57562;BME280;43397;51.530;5.974;2023-06-14T01:53:53;75406.84;;;-145.90;37.51
57562;BME280;43397;51.530;5.974;2023-06-14T01:56:19;75425.09;;;-145.90;37.68
57562;BME280;43397;51.530;5.974;2023-06-14T01:58:46;75433.19;;;-145.90;37.80
57562;BME280;43397;51.530;5.974;2023-06-14T02:01:11;75412.94;;;-145.90;37.57
57562;BME280;43397;51.530;5.974;2023-06-14T02:03:37;75441.31;;;-145.90;37.92
57562;BME280;43397;51.530;5.974;2023-06-14T02:06:03;75441.31;;;-145.90;37.89
57562;BME280;43397;51.530;5.974;2023-06-14T02:08:28;75447.38;;;-145.90;38.02
57562;BME280;43397;51.530;5.974;2023-06-14T02:10:54;75441.31;;;-145.90;37.92
57562;BME280;43397;51.530;5.974;2023-06-14T02:13:20;75423.06;;;-145.90;37.64
57562;BME280;43397;51.530;5.974;2023-06-14T02:15:47;75412.94;;;-145.90;37.74
57562;BME280;43397;51.530;5.974;2023-06-14T02:18:12;75414.94;;;-145.90;37.68
57562;BME280;43397;51.530;5.974;2023-06-14T02:20:38;75402.78;;;-145.90;37.60
57562;BME280;43397;51.530;5.974;2023-06-14T02:23:04;75394.69;;;-145.90;37.34
57562;BME280;43397;51.530;5.974;2023-06-14T02:25:29;75394.69;;;-145.90;37.32
57562;BME280;43397;51.530;5.974;2023-06-14T02:27:55;75382.53;;;-145.90;37.29
57562;BME280;43397;51.530;5.974;2023-06-14T02:30:21;75398.75;;;-145.90;37.39
57562;BME280;43397;51.530;5.974;2023-06-14T02:32:48;75390.63;;;-145.90;37.21
57562;BME280;43397;51.530;5.974;2023-06-14T02:35:14;75396.72;;;-145.90;37.27
57562;BME280;43397;51.530;5.974;2023-06-14T02:37:40;75412.94;;;-145.90;37.43
57562;BME280;43397;51.530;5.974;2023-06-14T02:40:07;75400.78;;;-145.90;37.09
57562;BME280;43397;51.530;5.974;2023-06-14T02:42:32;75392.66;;;-145.90;37.24
57562;BME280;43397;51.530;5.974;2023-06-14T02:44:58;75398.75;;;-145.90;37.22
57562;BME280;43397;51.530;5.974;2023-06-14T02:47:24;75392.66;;;-145.90;37.26
57562;BME280;43397;51.530;5.974;2023-06-14T02:49:51;75400.78;;;-145.90;37.38
57562;BME280;43397;51.530;5.974;2023-06-14T02:52:16;75366.31;;;-145.90;36.91
57562;BME280;43397;51.530;5.974;2023-06-14T02:54:42;75392.66;;;-145.90;37.12
57562;BME280;43397;51.530;5.974;2023-06-14T02:57:08;75374.41;;;-145.90;36.94
57562;BME280;43397;51.530;5.974;2023-06-14T02:59:33;75398.75;;;-145.90;37.38
57562;BME280;43397;51.530;5.974;2023-06-14T03:01:59;75356.19;;;-145.90;36.80
57562;BME280;43397;51.530;5.974;2023-06-14T03:04:25;75364.28;;;-145.90;36.82
57562;BME280;43397;51.530;5.974;2023-06-14T03:06:52;75388.59;;;-145.90;37.06
57562;BME280;43397;51.530;5.974;2023-06-14T03:09:18;75421.03;;;-145.90;37.37
57562;BME280;43397;51.530;5.974;2023-06-14T03:11:43;75423.06;;;-145.90;37.28
57562;BME280;43397;51.530;5.974;2023-06-14T03:14:09;75404.81;;;-145.90;37.35
57562;BME280;43397;51.530;5.974;2023-06-14T03:16:35;75412.94;;;-145.90;37.52
57562;BME280;43397;51.530;5.974;2023-06-14T03:19:01;75427.13;;;-145.90;37.62
57562;BME280;43397;51.530;5.974;2023-06-14T03:21:26;75441.31;;;-145.90;37.86
57562;BME280;43397;51.530;5.974;2023-06-14T03:23:53;75453.47;;;-145.90;37.98
57562;BME280;43397;51.530;5.974;2023-06-14T03:26:19;75425.09;;;-145.90;37.66
57562;BME280;43397;51.530;5.974;2023-06-14T03:28:45;75421.03;;;-145.90;37.75
57562;BME280;43397;51.530;5.974;2023-06-14T03:31:11;75469.66;;;-145.90;38.32
57562;BME280;43397;51.530;5.974;2023-06-14T03:33:36;75463.59;;;-145.90;38.14
57562;BME280;43397;51.530;5.974;2023-06-14T03:36:02;75502.09;;;-145.90;38.74
57562;BME280;43397;51.530;5.974;2023-06-14T03:38:29;75467.66;;;-145.90;38.28
57562;BME280;43397;51.530;5.974;2023-06-14T03:40:56;75459.53;;;-145.90;38.14
57562;BME280;43397;51.530;5.974;2023-06-14T03:43:21;75453.47;;;-145.90;38.09
57562;BME280;43397;51.530;5.974;2023-06-14T03:45:47;75463.59;;;-145.90;38.42
57562;BME280;43397;51.530;5.974;2023-06-14T03:48:13;75427.13;;;-145.90;37.71
57562;BME280;43397;51.530;5.974;2023-06-14T03:50:38;75445.34;;;-145.90;37.75
57562;BME280;43397;51.530;5.974;2023-06-14T03:53:05;75406.84;;;-145.90;37.40
57562;BME280;43397;51.530;5.974;2023-06-14T03:55:30;75400.78;;;-145.90;37.45
57562;BME280;43397;51.530;5.974;2023-06-14T03:57:57;75412.94;;;-145.90;37.69
57562;BME280;43397;51.530;5.974;2023-06-14T04:00:23;75398.75;;;-145.90;37.49
57562;BME280;43397;51.530;5.974;2023-06-14T04:02:49;75433.19;;;-145.90;37.98
57562;BME280;43397;51.530;5.974;2023-06-14T04:05:14;75449.41;;;-145.90;38.31
57562;BME280;43397;51.530;5.974;2023-06-14T04:07:40;75455.47;;;-145.90;38.19
57562;BME280;43397;51.530;5.974;2023-06-14T04:10:07;75435.22;;;-145.90;37.93
57562;BME280;43397;51.530;5.974;2023-06-14T04:12:33;75406.84;;;-145.90;37.91
57562;BME280;43397;51.530;5.974;2023-06-14T04:15:00;75402.78;;;-145.90;37.77
57562;BME280;43397;51.530;5.974;2023-06-14T04:17:25;75408.88;;;-145.90;37.95
57562;BME280;43397;51.530;5.974;2023-06-14T04:19:51;75398.75;;;-145.90;37.61
57562;BME280;43397;51.530;5.974;2023-06-14T04:22:17;75398.75;;;-145.90;37.55
57562;BME280;43397;51.530;5.974;2023-06-14T04:24:43;75344.03;;;-145.90;37.14
57562;BME280;43397;51.530;5.974;2023-06-14T04:27:08;75346.06;;;-145.90;37.05
57562;BME280;43397;51.530;5.974;2023-06-14T04:29:34;75360.25;;;-145.90;37.01
57562;BME280;43397;51.530;5.974;2023-06-14T04:32:01;75333.91;;;-145.90;36.68
57562;BME280;43397;51.530;5.974;2023-06-14T04:34:27;75352.13;;;-145.90;36.97
57562;BME280;43397;51.530;5.974;2023-06-14T04:36:53;75329.84;;;-145.90;36.75
57562;BME280;43397;51.530;5.974;2023-06-14T04:39:19;75321.72;;;-145.90;37.10
57562;BME280;43397;51.530;5.974;2023-06-14T04:41:44;75333.91;;;-145.90;36.96
57562;BME280;43397;51.530;5.974;2023-06-14T04:44:10;75309.56;;;-145.90;36.75
57562;BME280;43397;51.530;5.974;2023-06-14T04:46:36;75305.53;;;-145.90;36.65
57562;BME280;43397;51.530;5.974;2023-06-14T04:49:03;75291.34;;;-145.90;36.20
57562;BME280;43397;51.530;5.974;2023-06-14T04:51:30;75256.88;;;-145.90;36.25
57562;BME280;43397;51.530;5.974;2023-06-14T04:53:56;75240.69;;;-145.90;35.93
57562;BME280;43397;51.530;5.974;2023-06-14T04:56:21;75198.13;;;-145.90;35.59
57562;BME280;43397;51.530;5.974;2023-06-14T04:58:47;75194.06;;;-145.90;35.57
57562;BME280;43397;51.530;5.974;2023-06-14T05:01:13;75153.53;;;-145.90;35.32
57562;BME280;43397;51.530;5.974;2023-06-14T05:03:38;75149.47;;;-145.90;35.08
57562;BME280;43397;51.530;5.974;2023-06-14T05:06:05;75133.28;;;-145.90;35.35
57562;BME280;43397;51.530;5.974;2023-06-14T05:08:31;75110.97;;;-145.90;35.10
57562;BME280;43397;51.530;5.974;2023-06-14T05:10:57;75084.63;;;-145.90;34.83
57562;BME280;43397;51.530;5.974;2023-06-14T05:13:22;75106.94;;;-145.90;34.33
57562;BME280;43397;51.530;5.974;2023-06-14T05:15:48;75066.41;;;-145.90;34.39
57562;BME280;43397;51.530;5.974;2023-06-14T05:18:14;75113.00;;;-145.90;34.30
57562;BME280;43397;51.530;5.974;2023-06-14T05:20:39;75060.31;;;-145.90;34.48
57562;BME280;43397;51.530;5.974;2023-06-14T05:23:07;75050.19;;;-145.90;33.72
57562;BME280;43397;51.530;5.974;2023-06-14T05:25:32;75108.94;;;-145.90;33.93
57562;BME280;43397;51.530;5.974;2023-06-14T05:27:58;75027.91;;;-145.90;33.94
57562;BME280;43397;51.530;5.974;2023-06-14T05:30:24;74977.25;;;-145.90;33.38
57562;BME280;43397;51.530;5.974;2023-06-14T05:32:49;74975.22;;;-145.90;33.27
57562;BME280;43397;51.530;5.974;2023-06-14T05:35:15;75029.94;;;-145.90;33.67
57562;BME280;43397;51.530;5.974;2023-06-14T05:37:41;75023.84;;;-145.90;32.62
57562;BME280;43397;51.530;5.974;2023-06-14T05:40:09;74993.44;;;-145.90;32.98
57562;BME280;43397;51.530;5.974;2023-06-14T05:42:35;74985.34;;;-145.90;32.77
57562;BME280;43397;51.530;5.974;2023-06-14T05:45:00;74918.47;;;-145.90;32.41
57562;BME280;43397;51.530;5.974;2023-06-14T05:47:26;74954.94;;;-145.90;32.39
57562;BME280;43397;51.530;5.974;2023-06-14T05:49:52;74959.00;;;-145.90;32.77
57562;BME280;43397;51.530;5.974;2023-06-14T05:52:17;74981.28;;;-145.90;32.59
57562;BME280;43397;51.530;5.974;2023-06-14T05:54:43;74954.94;;;-145.90;32.36
57562;BME280;43397;51.530;5.974;2023-06-14T05:57:10;74922.53;;;-145.90;32.27
57562;BME280;43397;51.530;5.974;2023-06-14T05:59:35;74920.50;;;-145.90;31.81
57562;BME280;43397;51.530;5.974;2023-06-14T06:02:01;75013.72;;;-145.90;32.27
57562;BME280;43397;51.530;5.974;2023-06-14T06:04:27;74991.41;;;-145.90;32.46
57562;BME280;43397;51.530;5.974;2023-06-14T06:06:52;74965.09;;;-145.90;31.95
57562;BME280;43397;51.530;5.974;2023-06-14T06:09:18;74965.09;;;-145.90;32.26
57562;BME280;43397;51.530;5.974;2023-06-14T06:11:44;74906.31;;;-145.90;32.05
57562;BME280;43397;51.530;5.974;2023-06-14T06:14:11;74805.00;;;-145.90;31.48
57562;BME280;43397;51.530;5.974;2023-06-14T06:16:36;74788.78;;;-145.90;31.50
57562;BME280;43397;51.530;5.974;2023-06-14T06:19:02;74744.22;;;-145.90;31.04
57562;BME280;43397;51.530;5.974;2023-06-14T06:21:28;74717.88;;;-145.90;30.62
57562;BME280;43397;51.530;5.974;2023-06-14T06:23:53;74813.09;;;-145.90;30.59
57562;BME280;43397;51.530;5.974;2023-06-14T06:26:19;74788.78;;;-145.90;30.94
57562;BME280;43397;51.530;5.974;2023-06-14T06:28:45;74792.84;;;-145.90;30.94
57562;BME280;43397;51.530;5.974;2023-06-14T06:31:12;74774.59;;;-145.90;30.59
57562;BME280;43397;51.530;5.974;2023-06-14T06:33:37;74762.44;;;-145.90;30.79
57562;BME280;43397;51.530;5.974;2023-06-14T06:36:03;74744.22;;;-145.90;30.73
57562;BME280;43397;51.530;5.974;2023-06-14T06:38:29;74707.75;;;-145.90;30.73
57562;BME280;43397;51.530;5.974;2023-06-14T06:40:55;74756.38;;;-145.90;30.73
57562;BME280;43397;51.530;5.974;2023-06-14T06:43:20;74703.69;;;-145.90;30.65
57562;BME280;43397;51.530;5.974;2023-06-14T06:45:46;74715.84;;;-145.90;30.71
57562;BME280;43397;51.530;5.974;2023-06-14T06:48:13;74709.78;;;-145.90;30.56
57562;BME280;43397;51.530;5.974;2023-06-14T06:50:39;74644.94;;;-145.90;29.92
57562;BME280;43397;51.530;5.974;2023-06-14T06:53:04;74655.06;;;-145.90;30.41
57562;BME280;43397;51.530;5.974;2023-06-14T06:55:30;74683.44;;;-145.90;29.85
57562;BME280;43397;51.530;5.974;2023-06-14T06:57:56;74681.41;;;-145.90;30.53
57562;BME280;43397;51.530;5.974;2023-06-14T07:00:22;74655.06;;;-145.90;29.85
57562;BME280;43397;51.530;5.974;2023-06-14T07:02:47;74683.44;;;-145.90;29.92
57562;BME280;43397;51.530;5.974;2023-06-14T07:05:14;74721.94;;;-145.90;30.10
57562;BME280;43397;51.530;5.974;2023-06-14T07:07:40;74719.91;;;-145.90;30.81
57562;BME280;43397;51.530;5.974;2023-06-14T07:10:07;74740.16;;;-145.90;29.70
57562;BME280;43397;51.530;5.974;2023-06-14T07:12:32;74762.44;;;-145.90;30.01
57562;BME280;43397;51.530;5.974;2023-06-14T07:14:58;74774.59;;;-145.90;30.15
57562;BME280;43397;51.530;5.974;2023-06-14T07:17:24;74792.84;;;-145.90;30.32
57562;BME280;43397;51.530;5.974;2023-06-14T07:19:49;74752.31;;;-145.90;30.06
57562;BME280;43397;51.530;5.974;2023-06-14T07:22:16;74715.84;;;-145.90;29.74
57562;BME280;43397;51.530;5.974;2023-06-14T07:24:42;74699.63;;;-145.90;29.68
57562;BME280;43397;51.530;5.974;2023-06-14T07:27:08;74730.03;;;-145.90;29.88
57562;BME280;43397;51.530;5.974;2023-06-14T07:29:33;74659.13;;;-145.90;29.96
57562;BME280;43397;51.530;5.974;2023-06-14T07:31:59;74669.25;;;-145.90;30.06
57562;BME280;43397;51.530;5.974;2023-06-14T07:34:25;74683.44;;;-145.90;29.70
57562;BME280;43397;51.530;5.974;2023-06-14T07:36:50;74681.41;;;-145.90;29.63
57562;BME280;43397;51.530;5.974;2023-06-14T07:39:17;74628.72;;;-145.90;29.76
57562;BME280;43397;51.530;5.974;2023-06-14T07:41:43;74620.63;;;-145.90;29.13
57562;BME280;43397;51.530;5.974;2023-06-14T07:44:09;74584.16;;;-145.90;29.13
57562;BME280;43397;51.530;5.974;2023-06-14T07:46:34;74555.78;;;-145.90;28.72
57562;BME280;43397;51.530;5.974;2023-06-14T07:49:00;74537.53;;;-145.90;28.92
57562;BME280;43397;51.530;5.974;2023-06-14T07:51:26;74549.69;;;-145.90;28.29
57562;BME280;43397;51.530;5.974;2023-06-14T07:53:51;74612.50;;;-145.90;28.72
57562;BME280;43397;51.530;5.974;2023-06-14T07:56:18;74624.66;;;-145.90;29.08
57562;BME280;43397;51.530;5.974;2023-06-14T07:58:44;74624.66;;;-145.90;28.14
57562;BME280;43397;51.530;5.974;2023-06-14T08:01:10;74612.50;;;-145.90;28.50
57562;BME280;43397;51.530;5.974;2023-06-14T08:03:35;74580.09;;;-145.90;28.40
57562;BME280;43397;51.530;5.974;2023-06-14T08:06:01;74614.53;;;-145.90;27.81
57562;BME280;43397;51.530;5.974;2023-06-14T08:08:27;74519.31;;;-145.90;28.58
57562;BME280;43397;51.530;5.974;2023-06-14T08:10:52;74519.31;;;-145.90;28.13
57562;BME280;43397;51.530;5.974;2023-06-14T08:13:19;74525.38;;;-145.90;27.79
57562;BME280;43397;51.530;5.974;2023-06-14T08:15:45;74521.34;;;-145.90;27.65
57562;BME280;43397;51.530;5.974;2023-06-14T08:18:12;74507.16;;;-145.90;27.65
57562;BME280;43397;51.530;5.974;2023-06-14T08:20:37;74561.84;;;-145.90;27.27
57562;BME280;43397;51.530;5.974;2023-06-14T08:23:03;74555.78;;;-145.90;27.49
57562;BME280;43397;51.530;5.974;2023-06-14T08:25:29;74513.22;;;-145.90;27.41
57562;BME280;43397;51.530;5.974;2023-06-14T08:27:54;74509.19;;;-145.90;26.80
57562;BME280;43397;51.530;5.974;2023-06-14T08:30:22;74509.19;;;-145.90;26.59
57562;BME280;43397;51.530;5.974;2023-06-14T08:32:47;74495.00;;;-145.90;26.76
57562;BME280;43397;51.530;5.974;2023-06-14T08:35:13;74444.34;;;-145.90;27.14
57562;BME280;43397;51.530;5.974;2023-06-14T08:37:39;74499.06;;;-145.90;26.50
57562;BME280;43397;51.530;5.974;2023-06-14T08:40:07;74551.72;;;-145.90;26.66
57562;BME280;43397;51.530;5.974;2023-06-14T08:42:38;74578.06;;;-145.90;26.37
57562;BME280;43397;51.530;5.974;2023-06-14T08:45:04;74555.78;;;-145.90;27.00
57562;BME280;43397;51.530;5.974;2023-06-14T08:47:32;74501.06;;;-145.90;25.73
57562;BME280;43397;51.530;5.974;2023-06-14T08:49:58;74535.53;;;-145.90;27.02
57562;BME280;43397;51.530;5.974;2023-06-14T08:52:25;74563.88;;;-145.90;26.03
57562;BME280;43397;51.530;5.974;2023-06-14T08:54:53;74533.50;;;-145.90;26.70
57562;BME280;43397;51.530;5.974;2023-06-14T08:57:19;74531.47;;;-145.90;25.70
57562;BME280;43397;51.530;5.974;2023-06-14T08:59:47;74517.28;;;-145.90;25.95
57562;BME280;43397;51.530;5.974;2023-06-14T09:02:12;74395.72;;;-145.90;25.76
57562;BME280;43397;51.530;5.974;2023-06-14T09:04:40;74468.66;;;-145.90;25.44
57562;BME280;43397;51.530;5.974;2023-06-14T09:07:05;74409.91;;;-145.90;25.62
57562;BME280;43397;51.530;5.974;2023-06-14T09:09:31;74339.00;;;-145.90;25.04
57562;BME280;43397;51.530;5.974;2023-06-14T09:11:57;74395.72;;;-145.90;25.76
57562;BME280;43397;51.530;5.974;2023-06-14T09:14:23;74549.69;;;-145.90;25.33
57562;BME280;43397;51.530;5.974;2023-06-14T09:16:52;74413.97;;;-145.90;26.19
57562;BME280;43397;51.530;5.974;2023-06-14T09:19:21;74373.44;;;-145.90;25.38
57562;BME280;43397;51.530;5.974;2023-06-14T09:21:49;74450.44;;;-145.90;25.69
57562;BME280;43397;51.530;5.974;2023-06-14T09:24:15;74395.72;;;-145.90;25.41
57562;BME280;43397;51.530;5.974;2023-06-14T09:26:40;74442.31;;;-145.90;26.13
57562;BME280;43397;51.530;5.974;2023-06-14T09:29:06;74411.94;;;-145.90;25.44
57562;BME280;43397;51.530;5.974;2023-06-14T09:31:32;74426.09;;;-145.90;25.45
57562;BME280;43397;51.530;5.974;2023-06-14T09:33:58;74403.81;;;-145.90;25.56
57562;BME280;43397;51.530;5.974;2023-06-14T09:36:27;74468.66;;;-145.90;25.56
57562;BME280;43397;51.530;5.974;2023-06-14T09:38:56;74470.69;;;-145.90;26.01
57562;BME280;43397;51.530;5.974;2023-06-14T09:41:30;74497.03;;;-145.90;24.79
57562;BME280;43397;51.530;5.974;2023-06-14T09:43:57;74492.97;;;-145.90;25.71
57562;BME280;43397;51.530;5.974;2023-06-14T09:46:26;74525.38;;;-145.90;26.58
57562;BME280;43397;51.530;5.974;2023-06-14T09:48:52;74401.78;;;-145.90;25.65
57562;BME280;43397;51.530;5.974;2023-06-14T09:51:18;74379.50;;;-145.90;26.04
57562;BME280;43397;51.530;5.974;2023-06-14T09:53:46;74322.78;;;-145.90;24.64
57562;BME280;43397;51.530;5.974;2023-06-14T09:56:16;74351.16;;;-145.90;24.48
57562;BME280;43397;51.530;5.974;2023-06-14T09:58:47;74438.25;;;-145.90;24.89
57562;BME280;43397;51.530;5.974;2023-06-14T10:01:14;74395.72;;;-145.90;24.87
57562;BME280;43397;51.530;5.974;2023-06-14T10:03:41;74367.34;;;-145.90;25.18
57562;BME280;43397;51.530;5.974;2023-06-14T10:06:08;74395.72;;;-145.90;24.80
57562;BME280;43397;51.530;5.974;2023-06-14T10:08:36;74318.72;;;-145.90;25.12
57562;BME280;43397;51.530;5.974;2023-06-14T10:11:02;74330.88;;;-145.90;26.07
57562;BME280;43397;51.530;5.974;2023-06-14T10:13:31;74430.16;;;-145.90;26.17
57562;BME280;43397;51.530;5.974;2023-06-14T10:16:01;74486.91;;;-145.90;26.23
57562;BME280;43397;51.530;5.974;2023-06-14T10:18:34;74466.63;;;-145.90;26.54
57562;BME280;43397;51.530;5.974;2023-06-14T10:21:05;74353.16;;;-145.90;25.66
57562;BME280;43397;51.530;5.974;2023-06-14T10:23:37;74456.50;;;-145.90;26.63
57562;BME280;43397;51.530;5.974;2023-06-14T10:26:04;74428.13;;;-145.90;25.66
57562;BME280;43397;51.530;5.974;2023-06-14T10:28:31;74438.25;;;-145.90;25.79
57562;BME280;43397;51.530;5.974;2023-06-14T10:31:07;74415.97;;;-145.90;26.22
57562;BME280;43397;51.530;5.974;2023-06-14T10:33:50;74422.06;;;-145.90;26.62
57562;BME280;43397;51.530;5.974;2023-06-14T10:36:25;74428.13;;;-145.90;26.59
57562;BME280;43397;51.530;5.974;2023-06-14T10:38:57;74426.09;;;-145.90;26.98
57562;BME280;43397;51.530;5.974;2023-06-14T10:41:23;74324.81;;;-145.90;25.85
57562;BME280;43397;51.530;5.974;2023-06-14T10:43:50;74336.97;;;-145.90;25.99
57562;BME280;43397;51.530;5.974;2023-06-14T10:46:17;74367.34;;;-145.90;25.62
57562;BME280;43397;51.530;5.974;2023-06-14T10:48:43;74434.22;;;-145.90;26.64
57562;BME280;43397;51.530;5.974;2023-06-14T10:51:16;74397.75;;;-145.90;26.72
57562;BME280;43397;51.530;5.974;2023-06-14T10:53:42;74393.69;;;-145.90;26.20
57562;BME280;43397;51.530;5.974;2023-06-14T10:56:08;74357.22;;;-145.90;26.99
57562;BME280;43397;51.530;5.974;2023-06-14T10:58:34;74488.91;;;-145.90;26.92
57562;BME280;43397;51.530;5.974;2023-06-14T11:01:01;74424.09;;;-145.90;27.51
57562;BME280;43397;51.530;5.974;2023-06-14T11:03:50;74310.63;;;-145.90;25.95
57562;BME280;43397;51.530;5.974;2023-06-14T11:06:21;74339.00;;;-145.90;26.00
57562;BME280;43397;51.530;5.974;2023-06-14T11:11:44;74288.34;;;-145.90;25.56
57562;BME280;43397;51.530;5.974;2023-06-14T11:14:11;74347.09;;;-145.90;25.29
57562;BME280;43397;51.530;5.974;2023-06-14T11:16:38;74314.69;;;-145.90;26.24
57562;BME280;43397;51.530;5.974;2023-06-14T11:19:05;74306.56;;;-145.90;25.58
57562;BME280;43397;51.530;5.974;2023-06-14T11:21:32;74341.03;;;-145.90;24.93
57562;BME280;43397;51.530;5.974;2023-06-14T11:23:57;74290.38;;;-145.90;25.13
57562;BME280;43397;51.530;5.974;2023-06-14T11:26:26;74428.13;;;-145.90;24.68
57562;BME280;43397;51.530;5.974;2023-06-14T11:28:55;74367.34;;;-145.90;25.51
57562;BME280;43397;51.530;5.974;2023-06-14T11:31:21;74389.63;;;-145.90;25.23
57562;BME280;43397;51.530;5.974;2023-06-14T11:33:50;74395.72;;;-145.90;25.39
57562;BME280;43397;51.530;5.974;2023-06-14T11:36:16;74195.16;;;-145.90;24.62
57562;BME280;43397;51.530;5.974;2023-06-14T11:38:42;74290.38;;;-145.90;24.54
57562;BME280;43397;51.530;5.974;2023-06-14T11:41:07;74399.78;;;-145.90;25.31
57562;BME280;43397;51.530;5.974;2023-06-14T11:43:33;74221.47;;;-145.90;25.07
57562;BME280;43397;51.530;5.974;2023-06-14T11:45:59;74162.72;;;-145.90;24.65
57562;BME280;43397;51.530;5.974;2023-06-14T11:48:35;74262.00;;;-145.90;25.31
57562;BME280;43397;51.530;5.974;2023-06-14T11:51:03;74239.72;;;-145.90;25.11
57562;BME280;43397;51.530;5.974;2023-06-14T11:53:28;74300.50;;;-145.90;25.23
57562;BME280;43397;51.530;5.974;2023-06-14T11:55:54;74069.53;;;-145.90;24.46
57562;BME280;43397;51.530;5.974;2023-06-14T11:58:20;74270.09;;;-145.90;25.38
57562;BME280;43397;51.530;5.974;2023-06-14T12:00:48;74138.41;;;-145.90;25.25
57562;BME280;43397;51.530;5.974;2023-06-14T12:03:14;74099.94;;;-145.90;23.94
57562;BME280;43397;51.530;5.974;2023-06-14T12:05:40;73945.97;;;-145.90;23.71
57562;BME280;43397;51.530;5.974;2023-06-14T12:08:06;74085.75;;;-145.90;24.03
57562;BME280;43397;51.530;5.974;2023-06-14T12:10:39;73917.59;;;-145.90;23.75
57562;BME280;43397;51.530;5.974;2023-06-14T12:13:05;74027.00;;;-145.90;23.40
57562;BME280;43397;51.530;5.974;2023-06-14T12:15:31;73966.22;;;-145.90;23.40
57562;BME280;43397;51.530;5.974;2023-06-14T12:17:57;74043.19;;;-145.90;24.05
57562;BME280;43397;51.530;5.974;2023-06-14T12:20:23;74162.72;;;-145.90;24.59
57562;BME280;43397;51.530;5.974;2023-06-14T12:22:55;74262.00;;;-145.90;24.33
57562;BME280;43397;51.530;5.974;2023-06-14T12:25:27;74314.69;;;-145.90;24.62
57562;BME280;43397;51.530;5.974;2023-06-14T12:27:53;74205.28;;;-145.90;24.28
57562;BME280;43397;51.530;5.974;2023-06-14T12:30:19;73996.59;;;-145.90;23.46
57562;BME280;43397;51.530;5.974;2023-06-14T12:32:44;74114.09;;;-145.90;23.71
57562;BME280;43397;51.530;5.974;2023-06-14T12:35:10;74176.91;;;-145.90;23.48
57562;BME280;43397;51.530;5.974;2023-06-14T12:37:36;74079.66;;;-145.90;23.47
57562;BME280;43397;51.530;5.974;2023-06-14T12:40:01;73873.03;;;-145.90;23.54